Felipe Meneses

Recruteur - Huachipato
3 Déc 2028
Dimanche
Processus

Personnalité

Adaptabilité (15) Ambition (19) Controverse (18) Loyauté (4) Pression (14) Professionnalisme (9) Sportivité (17) Tempérament (1)

Profil

Style d'entraînement Démocratique
Diplôme Continental Pro
Détermination 8
Gestion des joueurs 11
Motivation 11
Discipline 12
Satisfaction professionnelle
100%
Fatigue
0%
Rôle Recruteur
Salaire 40.6K p/s
Contrat 14.03.2030

Performance

Comportement Bon
Efficacité de l'entraînement
26%
Développement des joueurs
20%
Prévention des blessures
60%
Mise en place tactique
25%

Événements récents

A évalué un joueur 7j
A participé à une réunion de recrutement 7j
A évalué un joueur 7j
A évalué un joueur 7j
A évalué un joueur 14j
A évalué un joueur 14j
A évalué un joueur 14j
A évalué un joueur 14j

Suivi en cours

128
Joueur Club Statut Capacité Confiance Observé Dernière observation Dernier vote
Tiago Gordillo San Miguel Actif 91 / 101 40% 2 25.11.2028 -
Trey Nyoni Rotherham United Actif 149 / 162 40% 2 25.11.2028 -
Samuel Molano Patriotas Actif 82 / 101 40% 3 23.11.2028 -
Joaquín Salas Reading Actif 118 / 109 40% 1 23.11.2028 -
Mateo Caballero Defensor Sporting Actif 101 / 104 40% 5 22.11.2028 -
Filip Reshane Stabaek Actif 94 / 97 40% 1 22.11.2028 -
Roberto Medina La Equidad Actif 104 / 95 40% 8 20.11.2028 -
Luis Otávio Orlando City Actif 131 / 136 40% 5 20.11.2028 -
Benito Paklayan Alvarado Actif 96 / 91 40% 4 19.11.2028 -
Mauro Matorras Central Norte Actif 93 / 91 40% 1 19.11.2028 -
Jorge Salinas Racing Santander Actif 132 / 130 40% 2 18.11.2028 -
Ramiro Villella Inter Actif 97 / 99 40% 1 18.11.2028 -
Jean Carlos Meneses Universitario Popayan Actif 81 / 90 40% 4 17.11.2028 -
Giovanni Leoni Lincoln City Actif 157 / 152 40% 2 17.11.2028 -
Alejandro Almaraz NK Celje Actif 110 / 134 40% 1 14.11.2028 -
Cayetano Santarelli BATE Actif 99 / 106 40% 1 14.11.2028 -
Joelson Gamarra General Caballero Actif 81 / 79 40% 1 13.11.2028 -
Máximo Munarriz San Telmo Actif 108 / 112 40% 3 10.11.2028 -
Facundo Balatti Penarol Actif 99 / 116 40% 1 10.11.2028 -
Peyton Miller New England Revolution Actif 119 / 131 40% 2 07.11.2028 -
Sergio Martínez Real Madrid Actif 136 / 136 40% 1 07.11.2028 -
Buba Sangaré Elche Actif 148 / 143 40% 3 06.11.2028 -
Joel Ezra Enyimba Actif 115 / 93 40% 7 05.11.2028 -
Matías Magdaleno Estudiantes Actif 104 / 115 40% 3 05.11.2028 -
Aytor Herrera Mineros de Guayana Actif 80 / 97 40% 3 03.11.2028 -
Jan Cedilnik Chikhura Actif 98 / 91 40% 1 03.11.2028 -
Mateo Faure BATE Actif 82 / 106 40% 3 02.11.2028 -
Felipe Varela Trujillanos Actif 88 / 91 40% 1 01.11.2028 -
Matías Satas Grimsby Town Actif 116 / 123 40% 2 30.10.2028 -
Luis Maturana Alianza Petrolera Actif 94 / 103 40% 1 30.10.2028 -
Tiago Rodríguez Central Norte Actif 77 / 83 40% 8 29.10.2028 -
Máximo Magnoli Ferro Carril Oeste Actif 96 / 96 40% 1 29.10.2028 -
Aaron Branca Artigas Actif 82 / 89 40% 4 28.10.2028 -
Ivan Borges Defensores Actif 91 / 92 40% 3 28.10.2028 -
Estanislao López Colón Actif 93 / 99 40% 3 23.10.2028 -
Gustavo Vázquez Sumgayit Actif 84 / 89 40% 1 23.10.2028 -
Francisco Machis Llaneros Actif 78 / 85 40% 3 22.10.2028 -
Felipe Pujol Vélez Actif 116 / 122 40% 3 18.10.2028 -
Gideon Manaseh Ikorodu City Actif 96 / 104 40% 1 17.10.2028 -
Cayden Cole Bidco United Actif 59 / 62 40% 1 14.10.2028 -
Celías Ingenthron Platense Actif 114 / 126 40% 3 12.10.2028 -
Matias Siltanen Malmo FF Actif 120 / 133 40% 2 12.10.2028 -
Lautaro Dufur Juventud Actif 102 / 110 40% 4 10.10.2028 -
Agustín Medina Lanús Actif 120 / 130 40% 2 07.10.2028 -
Germán Barbas Racing Santander Actif 118 / 114 40% 1 06.10.2028 -
Andres Casseres Llaneros Actif 84 / 74 40% 1 06.10.2028 -
Davinchi Getafe Actif 134 / 139 40% 1 03.10.2028 -
Lucas Camejo River Plate Actif 86 / 93 40% 4 02.10.2028 -
Mohammed Habib Sarwari Kariobangi Sharks Actif 66 / 92 40% 2 28.09.2028 -
Sebastian Rodriguez Houston Dynamo Actif 123 / 112 40% 1 28.09.2028 -
Felipe Obradovich Ferro Carril Oeste Actif 115 / 109 40% 1 20.09.2028 -
Anderson Acevedo Bogota Actif 90 / 91 40% 2 18.09.2028 -
Santiago Espíndola River Plate Actif 103 / 123 40% 1 15.09.2028 -
Martín Jiménez Iquique Actif 95 / 109 40% 3 13.09.2028 -
Pablo Alcoba Albion Actif 72 / 96 40% 1 10.09.2028 -
Axel Tape Bayer Leverkusen Actif 127 / 146 40% 1 09.09.2028 -
Luca Campagnaro Colón Actif 85 / 92 40% 1 07.09.2028 -
Hosea Michael Remo Stars Actif 88 / 83 40% 2 06.09.2028 -
Juan Camilo Córdoba Deportivo Pereira Actif 102 / 106 40% 1 01.09.2028 -
Thijs Kraaijeveld USM Alger Actif 115 / 139 40% 2 29.08.2028 -
Tobías Andrada River Plate Actif 109 / 129 40% 1 24.08.2028 -
Abubakar Adams Aduana Stars Actif 97 / 107 40% 1 23.08.2028 -
Samuel Córdoba Depor Actif 96 / 85 40% 1 23.08.2028 -
Tobías Ramírez River Plate Actif 135 / 129 40% 1 22.08.2028 -
Darwin Pérez Metropolitanos Actif 88 / 94 40% 1 19.08.2028 -
Francisco Arias Gimnasia y Esgrima Actif 98 / 105 40% 1 19.08.2028 -
Kwesi Sorotu Badori Berekum Chelsea Actif 93 / 94 40% 3 17.08.2028 -
Federico Matarán Giana Erminio Actif 91 / 119 40% 2 13.08.2028 -
Augusto Bando Ascoli Actif 122 / 134 40% 1 13.08.2028 -
Luciano Posadas Central Córdoba SdE Actif 103 / 106 40% 2 12.08.2028 -
Diego Vargas Universidad de Concepcion Négociation 107 / 90 40% 1 12.08.2028 -
Nicolò Moranduzzo Renate Actif 112 / 104 40% 1 07.08.2028 -
Martim Cunha Porto Actif 96 / 111 40% 1 07.08.2028 -
Riquelme Thompson-Jones Accrington Stanley Actif 113 / 128 40% 2 31.05.2028 -
Khama Mabunda Platinum Stars Actif 63 / 82 40% 1 31.05.2028 -
Jan Bürger Northampton Town Actif 113 / 116 40% 2 30.05.2028 -
Konta Ismaily Actif 111 / 94 40% 2 26.05.2028 -
Jorthy Mokio ADO Den Haag Actif 121 / 143 40% 2 26.05.2028 -
Daniel Banjaqui Benfica Actif 111 / 126 40% 1 25.05.2028 -
Olivier Leroux Mouscron Actif 118 / 102 40% 1 20.05.2028 -
Musa Danjuma Umraniyespor Actif 114 / 99 40% 2 19.05.2028 -
Simone Suppa Virtus Verona Actif 99 / 86 40% 1 17.05.2028 -
Bernardo Lima Porto Actif 123 / 130 40% 2 12.05.2028 -
Tyler Fletcher Rotherham United Actif 98 / 118 40% 2 11.05.2028 -
Andrija Bulatović Chamois Niortais Actif 129 / 142 40% 1 11.05.2028 -
Kamaldeen Atiemo Wa All Stars Actif 108 / 103 40% 1 10.05.2028 -
Kelian Le Pironnec Mirandés Actif 97 / 105 40% 1 09.05.2028 -
Hervin Goyes Deportivo Pasto Actif 117 / 107 40% 1 09.05.2028 -
Ethan Williams Peterborough United Actif 117 / 130 40% 5 28.05.2027 -
Nana Nuhu WAFA Actif 103 / 96 40% 2 28.05.2027 -
Calum Agius Crewe Alexandra Actif 87 / 102 40% 7 24.05.2027 -
Ishmael Addo Heart of Lions Actif 92 / 88 40% 3 24.05.2027 -
Lander Astiazarán Real Sociedad Actif 105 / 104 40% 4 21.05.2027 -
Mateus Mané Burnley Actif 147 / 138 40% 1 19.05.2027 -
Alex Verón Vélez Actif 115 / 116 40% 1 18.05.2027 -
Othmane Maamma Watford Actif 118 / 117 40% 5 17.05.2027 -
Monty Batlhabane Polokwane City Actif 95 / 107 40% 3 17.05.2027 -
Zane Albarus Shrewsbury Town Actif 86 / 89 40% 5 13.05.2027 -
Tomás Abdelnur Santos Laguna Actif 95 / 112 40% 3 08.05.2027 -
Leo Castledine Middlesbrough Actif 121 / 133 40% 2 07.05.2027 -
Oscar Schwartau Norwich City Actif 136 / 129 40% 2 03.05.2027 -
Gomolemo Kekana Maritzburg United Actif 89 / 106 40% 3 01.05.2027 -
Eliás Montiel Borussia Dortmund Actif 117 / 140 40% 2 29.04.2027 -
Caleb Yirenkyi Coventry City Actif 121 / 133 40% 1 26.04.2027 -
João Abreu Porto Actif 108 / 114 40% 2 22.04.2027 -
Luke Baartman Ajax Cape Town Actif 117 / 120 40% 2 20.04.2027 -
Daniel Awuni Aduana Stars Actif 79 / 103 40% 4 18.04.2027 -
Lucas Ferreira Shakhtar Actif 105 / 127 40% 3 17.04.2027 -
Marcos Arias Metalurh Zaporizhzhia Actif 82 / 84 40% 1 09.04.2027 -
Zack Nelson Ternana Actif 90 / 117 40% 3 04.04.2027 -
James Dornelly Peterborough United Actif 118 / 118 40% 2 04.04.2027 -
Veljko Radosavljević Cukaricki Actif 90 / 107 40% 1 07.03.2027 -
Romelle Donovan Brentford Actif 129 / 137 40% 1 02.03.2027 -
Robert FC Copenhagen Actif 134 / 129 40% 2 01.03.2027 -
Martin Gjorgievski Zbrojovka Brno Actif 104 / 130 40% 1 18.02.2027 -
Gabriele Bertolini Vicenza Actif 108 / 112 40% 1 15.02.2027 -
Rocco Vata Watford Actif 126 / 116 40% 3 02.02.2027 -
Jon Eceizabarrena Real Sociedad Actif 83 / 89 40% 1 25.01.2027 -
Lautaro Ríos Banfield Actif 131 / 125 40% 1 30.11.2026 -
Thomas Carrique Andorra Actif 108 / 102 40% 1 06.11.2026 -
James Morris Leyton Orient Actif 132 / 106 40% 1 03.11.2026 -
Tomáš Nemčík Rosenborg Actif 138 / 139 40% 1 03.11.2026 -
Valentino Huertas Morón Actif 81 / 106 40% 1 17.10.2026 -
Facundo Miño Deportivo Riestra Actif 123 / 122 40% 1 07.09.2026 -
Eduardo Delmás Olimpia Actif 81 / 96 40% 1 04.08.2026 -
Carlos Arrúa Guarani Actif 110 / 105 40% 1 03.08.2026 -
Demián Troya Platense Actif 93 / 105 40% 1 03.08.2026 -
Bruno Hernández Cerro Largo Actif 87 / 94 40% 1 03.08.2026 -